createdAt,value
2019-03-12T20:06:59.165Z,96830.14
2019-03-12T20:09:30.643Z,96828.59
2019-03-12T20:12:19.913Z,96829.98
2019-03-12T20:15:20.535Z,96819.10
2019-03-12T20:18:06.305Z,96826.39
2019-03-12T20:20:57.514Z,96803.67
2019-03-12T20:24:02.115Z,96789.58
2019-03-12T20:26:42.892Z,96772.92
2019-03-12T20:29:36.977Z,96770.31
2019-03-12T20:32:26.961Z,96765.53
2019-03-12T20:35:32.116Z,96772.95
2019-03-12T20:38:38.056Z,96764.97
2019-03-12T20:41:42.829Z,96756.88
2019-03-12T20:44:25.998Z,96767.34
2019-03-12T20:47:14.287Z,96764.61
2019-03-12T20:49:54.586Z,96763.48
2019-03-12T20:52:38.274Z,96761.32
2019-03-12T20:55:21.551Z,96758.95
2019-03-12T20:58:26.341Z,96766.45
2019-03-12T21:01:33.225Z,96769.98
2019-03-12T21:04:16.352Z,96760.55
2019-03-12T21:07:02.266Z,96754.33
2019-03-12T21:09:54.195Z,96737.72
2019-03-12T21:12:49.686Z,96724.08
2019-03-12T21:15:38.864Z,96718.70
2019-03-12T21:18:27.017Z,96710.20
2019-03-12T21:21:22.083Z,96710.77
2019-03-12T21:24:14.854Z,96706.88
2019-03-12T21:27:01.340Z,96708.69
2019-03-12T21:29:43.254Z,96702.22
2019-03-12T21:32:14.140Z,96696.64
2019-03-12T21:34:42.420Z,96705.03
2019-03-12T21:37:10.716Z,96703.67
2019-03-12T21:39:38.928Z,96698.22
2019-03-12T21:42:07.236Z,96704.70
2019-03-12T21:44:35.859Z,96700.37
2019-03-12T21:47:04.442Z,96693.20
2019-03-12T21:49:32.647Z,96695.01
2019-03-12T21:52:01.200Z,96692.07
2019-03-12T21:54:29.655Z,96692.28
2019-03-12T21:57:00.577Z,96675.14
2019-03-12T21:59:28.797Z,96691.36
2019-03-12T22:01:57.275Z,96689.07
2019-03-12T22:04:25.519Z,96677.59
2019-03-12T22:06:54.045Z,96681.48
2019-03-12T22:09:37.832Z,96683.41
2019-03-12T22:12:06.869Z,96668.96
2019-03-12T22:14:35.069Z,96665.36
2019-03-12T22:17:04.461Z,96668.88
2019-03-12T22:19:32.672Z,96659.09
2019-03-12T22:22:02.835Z,96654.08
2019-03-12T22:24:31.038Z,96662.27
2019-03-12T22:26:59.254Z,96652.52
2019-03-12T22:29:27.463Z,96634.10
2019-03-12T22:31:55.695Z,96642.73
2019-03-12T22:34:23.887Z,96634.55
2019-03-12T22:36:52.119Z,96626.59
2019-03-12T22:39:20.382Z,96630.69
2019-03-12T22:41:48.937Z,96626.36
2019-03-12T22:44:17.150Z,96638.07
2019-03-12T22:46:45.725Z,96632.05
2019-03-12T22:49:14.173Z,96636.34
2019-03-12T22:51:42.387Z,96641.59
2019-03-12T22:54:10.588Z,96634.55
2019-03-12T22:56:38.824Z,96634.55
2019-03-12T22:59:07.026Z,96657.41
2019-03-12T23:01:35.254Z,96673.33
2019-03-12T23:04:03.734Z,96682.28
2019-03-12T23:06:31.946Z,96681.28
2019-03-12T23:09:00.495Z,96674.25
2019-03-12T23:11:28.701Z,96690.27
2019-03-12T23:13:57.241Z,96709.57
2019-03-12T23:16:25.571Z,96729.38
2019-03-12T23:18:53.768Z,96736.20
2019-03-12T23:21:22.352Z,96759.52
2019-03-12T23:23:50.814Z,96797.50
2019-03-12T23:26:19.345Z,96786.58
2019-03-12T23:28:47.557Z,96789.88
2019-03-12T23:31:15.765Z,96802.36
2019-03-12T23:33:43.968Z,96795.09
2019-03-12T23:36:14.085Z,96806.45
2019-03-12T23:38:42.306Z,96850.34
2019-03-12T23:41:10.519Z,96851.02
2019-03-12T23:43:38.731Z,96858.08
2019-03-12T23:46:07.389Z,96868.75
2019-03-12T23:48:35.604Z,96858.44
2019-03-12T23:51:04.148Z,96871.95
2019-03-12T23:53:32.354Z,96872.86
2019-03-12T23:56:00.551Z,96882.20
2019-03-12T23:58:30.502Z,96896.05
